ADDS METAR Data INFO
IDs: Format: Raw Decoded Include TAF

Data at: 0056 UTC 21 Oct 2017

KJKL 210053Z AUTO 00000KT 10SM CLR 18/11 A3023 RMK AO2 SLP231 T01780106
KJKL 202353Z AUTO 00000KT 10SM CLR 18/11 A3023 RMK AO2 SLP231 T01830106 10233 20183 55002
KJKL 202253Z AUTO 00000KT 10SM CLR 19/11 A3023 RMK AO2 SLP230 T01940106
KJKL 202153Z AUTO VRB03KT 10SM CLR 22/11 A3022 RMK AO2 SLP228 T02220106
KJKL 202053Z AUTO 00000KT 10SM CLR 23/10 A3023 RMK AO2 SLP230 T02280100 56016
KJKL 201953Z AUTO 00000KT 10SM CLR 23/10 A3024 RMK AO2 SLP232 T02330100
KJKL 201853Z AUTO 00000KT 10SM CLR 22/11 A3026 RMK AO2 SLP239 T02220106
KJKL 201753Z AUTO 00000KT 10SM CLR 22/11 A3028 RMK AO2 SLP246 T02170106 10217 20094 58022
KJKL 201653Z AUTO 10SM CLR 21/11 A3032 RMK AO2 SLP261 T02060106
KJKL 201553Z AUTO 00000KT 10SM CLR 18/11 A3034 RMK AO2 SLP269 T01830106
KJKL 201453Z AUTO 00000KT 10SM CLR 16/10 A3035 RMK AO2 SLP271 T01560100 51009
KJKL 201353Z AUTO 00000KT 10SM CLR 12/08 A3035 RMK AO2 SLP271 T01220083
KJKL 201253Z AUTO 00000KT 10SM CLR 11/08 A3034 RMK AO2 SLP269 T01060083
KJKL 201153Z AUTO 00000KT 10SM CLR 09/07 A3032 RMK AO2 SLP264 T00940072 10128 20094 53014
KJKL 201053Z AUTO 00000KT 10SM CLR 10/08 A3030 RMK AO2 SLP257 T01000078
KJKL 200953Z AUTO 00000KT 10SM CLR 10/08 A3029 RMK AO2 SLP253 T01000078
KJKL 200853Z AUTO 00000KT 10SM CLR 11/08 A3028 RMK AO2 SLP247 T01060078 53001
KJKL 200753Z AUTO 20003KT 10SM CLR 11/08 A3028 RMK AO2 SLP245 T01110078
KJKL 200653Z AUTO 00000KT 10SM CLR 11/08 A3028 RMK AO2 SLP246 T01110083
KJKL 200553Z AUTO 00000KT 10SM CLR 13/08 A3028 RMK AO2 SLP245 T01280083 10172 20117 51003
KJKL 200453Z AUTO 00000KT 10SM CLR 12/08 A3027 RMK AO2 SLP245 T01220083 402170067
KJKL 200353Z AUTO 00000KT 10SM CLR 14/08 A3028 RMK AO2 SLP246 T01390078
KJKL 200253Z AUTO 00000KT 10SM CLR 15/08 A3027 RMK AO2 SLP244 T01500078 51003
KJKL 200153Z AUTO 00000KT 10SM CLR 16/07 A3026 RMK AO2 SLP244 T01610072
KJKL 200053Z AUTO 28003KT 10SM CLR 17/07 A3027 RMK AO2 SLP244 T01670072
KJKL 192353Z AUTO 00000KT 10SM CLR 17/07 A3026 RMK AO2 SLP243 T01670072 10217 20167 53003
KJKL 192253Z AUTO 00000KT 10SM CLR 17/08 A3025 RMK AO2 SLP238 T01720078
KJKL 192153Z AUTO 00000KT 10SM CLR 20/08 A3025 RMK AO2 SLP236 T02000083
KJKL 192053Z AUTO 00000KT 10SM CLR 21/08 A3025 RMK AO2 SLP236 T02060078 56015
KJKL 191953Z AUTO VRB04KT 10SM CLR 22/08 A3026 RMK AO2 SLP239 T02170083
KJKL 191853Z AUTO 00000KT 10SM CLR 21/07 A3027 RMK AO2 SLP243 T02110072
KJKL 191753Z AUTO VRB04KT 10SM CLR 20/08 A3029 RMK AO2 SLP252 T02000078 10206 20067 58014
KJKL 191653Z AUTO VRB04KT 10SM CLR 19/08 A3033 RMK AO2 SLP264 T01940083
KJKL 191553Z AUTO VRB06KT 10SM CLR 17/09 A3034 RMK AO2 SLP269 T01670089
KJKL 191453Z AUTO 00000KT 10SM CLR 13/08 A3034 RMK AO2 SLP269 T01330083 51012
KJKL 191353Z AUTO 00000KT 10SM CLR 12/07 A3033 RMK AO2 SLP266 T01170072